Flight Track Log - Related Links

Times and Time Zones

All times are in EDT time to prevent confusion due to time zone crossing. See the N102WY flight status page for this flight to view local times or setup timezone preferences in your user account.

Time Position Orientation Groundspeed Altitude Reporting Facility
EDT Latitude Longitude Course Direction KTS MPH feet Rate Location/Type
05:45PM 41.1428 -104.8586 118° Southeast 269 310 8,200  Level Denver Center
05:46PM 41.0725 -104.8178 156° South 311 358 10,800 3,048 Climbing Denver Center
05:47PM 41.0217 -104.7042 121° Southeast 318 366 14,500 3,290 Climbing Denver Center
05:48PM 40.9792 -104.5892 116° Southeast 331 381 17,600 2,952 Climbing Denver Center
05:49PM 40.9575 -104.4617 103° East 352 405 20,600 2,661 Climbing Denver Center
05:50PM 40.8311 -104.0492 118° Southeast  Level Estimated
05:50PM 40.9375 -104.3317 101° East 358 412 23,100  Level Denver Center
05:51PM 40.9192 -104.2011 100° East 362 417 25,700 2,352 Climbing Denver Center
05:52PM 40.9008 -104.0672 100° East 367 422 28,000 2,160 Climbing Denver Center
05:53PM 40.8542 -103.9481 117° Southeast 366 421 30,200 1,854 Climbing Denver Center
05:54PM 40.8169 -103.8214 111° Southeast 372 428 31,800 1,659 Climbing Denver Center
05:55PM 40.7769 -103.6650 109° East 375 432 33,600 1,500 Climbing Denver Center
05:56PM 40.7172 -103.5436 123° Southeast 393 452 34,900 677 Climbing Denver Center
05:57PM 40.6600 -103.4164 121° Southeast 404 465 35,000 48 Climbing Denver Center
05:58PM 40.5997 -103.2850 121° Southeast 416 479 35,000 339 Level Denver Center
05:59PM 40.5400 -103.1553 121° Southeast 417 480 35,700 1,065 Climbing Denver Center
06:00PM 40.4817 -103.0303 122° Southeast 404 465 37,200 1,210 Climbing Denver Center
06:01PM 40.4131 -102.8847 122° Southeast 393 452 38,200 871 Climbing Denver Center
06:02PM 40.3567 -102.7614 121° Southeast 394 453 39,000 387 Climbing Denver Center
06:03PM 40.2997 -102.6386 121° Southeast 404 465 39,000  Level Denver Center
06:04PM 40.2311 -102.4933 122° Southeast 418 481 39,000  Level Denver Center
06:05PM 40.1719 -102.3686 122° Southeast 423 487 39,000 49 Level Denver Center
06:06PM 40.1036 -102.2236 122° Southeast 421 484 39,100 390 Climbing Denver Center
06:07PM 40.0461 -102.0953 120° Southeast 427 491 39,800 774 Climbing Denver Center
06:08PM 39.9900 -101.9708 120° Southeast 418 481 40,700 581 Climbing Denver Center
06:09PM 39.9253 -101.8283 121° Southeast 411 473 41,000 145 Climbing Denver Center
06:11PM 39.8683 -101.7072 121° Southeast 411 473 41,000  Level Denver Center
06:12PM 39.8042 -101.5653 120° Southeast 411 473 41,000  Level Denver Center
06:13PM 39.7481 -101.4442 121° Southeast 410 472 41,000  Level Denver Center
06:14PM 39.6831 -101.3053 121° Southeast 406 467 41,000  Level Denver Center
06:15PM 39.6286 -101.1872 121° Southeast 403 464 41,000  Level Denver Center
06:16PM 39.5639 -101.0489 121° Southeast 402 463 41,000  Level Denver Center
06:17PM 39.5083 -100.9308 121° Southeast 401 461 41,000  Level Denver Center
06:18PM 39.4433 -100.7919 121° Southeast 405 466 41,000  Level Denver Center
06:19PM 39.3869 -100.6753 122° Southeast 402 463 41,000  Level Denver Center
06:20PM 39.3219 -100.5383 121° Southeast 402 463 41,000  Level Denver Center
06:21PM 39.2667 -100.4219 122° Southeast 400 460 41,000  Level Denver Center
06:22PM 39.2014 -100.2856 122° Southeast 401 461 41,000  Level Denver Center
06:23PM 39.1442 -100.1689 122° Southeast 402 463 41,000  Level Denver Center
06:24PM 39.0875 -100.0517 122° Southeast 403 464 41,000  Level Denver Center
06:25PM 39.0114 -99.9183 126° Southeast 404 465 41,000  Level Denver Center
06:26PM 38.9800 -99.8606 125° Southeast 404 465 41,000  Level Kansas City Center
06:27PM 38.9064 -99.7269 125° Southeast 408 470 41,000  Level Kansas City Center
06:28PM 38.8439 -99.6161 126° Southeast 404 465 41,000  Level Kansas City Center
06:29PM 38.7753 -99.4928 125° Southeast 402 463 41,000  Level Kansas City Center
06:30PM 38.7103 -99.3767 126° Southeast 400 460 41,000  Level Kansas City Center
06:31PM 38.6453 -99.2617 126° Southeast 400 460 41,000 -48 Level Kansas City Center
06:32PM 38.5797 -99.1475 126° Southeast 399 459 40,900 -532 Descending Kansas City Center
06:33PM 38.5131 -99.0289 126° Southeast 407 468 39,900 -919 Descending Kansas City Center
06:34PM 38.4297 -98.8806 126° Southeast 425 489 39,000 -968 Descending Kansas City Center
06:35PM 38.3581 -98.7564 126° Southeast 433 498 37,900 -2,146 Descending Kansas City Center
06:36PM 38.2856 -98.6311 126° Southeast 438 504 34,600 -3,220 Descending Kansas City Center
06:37PM 38.2133 -98.5025 126° Southeast 446 513 31,300 -3,194 Descending Kansas City Center
06:38PM 38.1411 -98.3786 127° Southeast 439 505 28,000 -3,446 Descending Kansas City Center
06:39PM 38.0886 -98.2881 126° Southeast 429 494 25,500 -3,290 Descending Kansas City Center
06:39PM 38.0711 -98.2581 127° Southeast 428 493 24,600 -3,300 Descending Kansas City Center
06:40PM 38.0217 -98.1731 126° Southeast 407 468 22,200 -3,097 Descending Kansas City Center
06:40PM 37.9989 -98.1336 126° Southeast 408 470 21,400 -3,045 Descending Kansas City Center
06:41PM 37.9472 -98.0486 128° Southeast 383 441 18,800 -3,541 Descending Kansas City Center
06:41PM 37.9297 -98.0153 124° Southeast 389 448 17,800 -2,852 Descending Kansas City Center
06:42PM 37.8794 -97.9525 135° Southeast 356 410 15,900 -2,323 Descending Kansas City Center
06:42PM 37.8669 -97.9344 131° Southeast 363 418 15,400 -2,459 Descending Kansas City Center
06:43PM 37.8150 -97.8694 135° Southeast 333 383 13,400 -2,516 Descending Kansas City Center
06:43PM 37.7992 -97.8486 134° Southeast 340 391 12,800 -2,400 Descending Kansas City Center
06:44PM 37.7511 -97.7917 137° Southeast 312 359 11,000 -2,656 Descending Kansas City Center
06:44PM 37.7258 -97.7589 134° Southeast 319 367 10,100 -2,164 Descending Kansas City Center
06:45PM 37.6917 -97.7186 137° Southeast 299 344 8,800 -1,839 Descending Kansas City Center
06:45PM 37.6781 -97.6992 131° Southeast 304 350 8,200 -2,066 Descending Kansas City Center
06:46PM 37.6367 -97.6478 135° Southeast 284 327 6,700 -1,935 Descending Kansas City Center
06:46PM 37.6144 -97.6128 129° Southeast 288 331 6,200 -1,082 Descending Kansas City Center
06:47PM 37.5953 -97.5669 118° Southeast 238 274 5,600 -1,161 Descending Kansas City Center
06:47PM 37.5889 -97.5386 106° East 251 289 5,000 -1,500 Descending Kansas City Center
06:48PM 37.5819 -97.4950 101° East 191 220 4,100 -1,475 Descending Kansas City Center
06:48PM 37.5847 -97.4692 82° East 218 251 3,500 -1,475 Descending Kansas City Center
06:49PM 37.6025 -97.4469 45° Northeast 142 163 2,600 -1,452 Descending Kansas City Center
06:49PM 37.6156 -97.4378 29° Northeast 167 192 2,000 -742 Descending Kansas City Center
06:50PM 37.6511 -97.4200 22° Northeast 147 169 1,500 -484 Descending Kansas City Center
06:52PM 37.6499 -97.4331 180° South  Level Estimated

Login

Don't have an account? Register now (free) for customized features, flight alerts, and more!